Orange City, IA

8:04 AM CDT on September 20, 2014 (GMT -0500)
Orange City Municipal | Change Station
CLOSE
Current Station
Airport
Location: Orange City,
Elevation: 1414 ft
Nearby Weather Stations

Elev 1414 ft 42.99 °N, 96.06 °W | Updated 9 minutes ago

Light Rain
Light Rain
64 °F
Feels Like 64 °F
N
5
Wind Variable Wind from North

Today
High -- | Low -- °F
--% Chance of Precip.
Yesterday
High -- | Low -- °F
Precip. -- in
7:09 AM 7:25 PM
Waning Crescent, 12% visible
Pressure 29.89 in
Visibility 10.0 miles
Clouds Scattered Clouds 4800 ft
Scattered Clouds 7000 ft
Mostly Cloudy 10000 ft
Dew Point 59 °F
Humidity 83%
Rainfall 0.00 in
Snow Depth Not available.
UV 0 out of 12
Pollen 5.70 out of 12
Air Quality Not available.
Flu Activity Not available.
METAR KORC 201255Z AUTO 35004KT 10SM -RA SCT048 SCT070 BKN100 18/15 A2989 RMK AO2

More Conditions Fewer Conditions

Pressure 29.89 in
Visibility 10.0 miles
Clouds Scattered Clouds 4800 ft
Scattered Clouds 7000 ft
Mostly Cloudy 10000 ft
Dew Point 59 °F
Humidity 83%
Rainfall 0.00 in
Snow Depth Not available.
UV 0 out of 12
Pollen 5.70 out of 12
Air Quality Not available.
Flu Activity Not available.
METAR KORC 201255Z AUTO 35004KT 10SM -RA SCT048 SCT070 BKN100 18/15 A2989 RMK AO2

More Conditions Fewer Conditions

10-Day Weather Forecast

Almanac

Astronomy

Sep. 20, 2014 Rise Set
Actual Time 7:09 AM CDT 7:25 PM CDT
Civil Twilight 6:40 AM CDT 7:53 PM CDT
Nautical Twilight 6:07 AM CDT 8:26 PM CDT
Astronomical Twilight 5:33 AM CDT 9:00 PM CDT
Moon 3:45 AM CDT 5:32 PM CDT
Length of Visible Light 13h 12m
Length of Day
12h 15m
Tomorrow will be 2m 54s shorter.
Waning Crescent, 12% of the Moon is Illuminated
Today
Waning Crescent
Sep 24
New
Oct 1
First Quarter
Oct 8
Full
Oct 15
Last Quarter

Today's Extremes

State Highs State Lows

Community

WunderPhotos

Upload Photos

1,754,847 photos uploaded!

Nearby

Snow Depth

Station Depth Elevation
No new snow has been reported.

Earthquake Activity

City Distance Mag. Time & Date
No recent earthquake activity has been reported nearby.
Minimum magnitude displayed is 2.5.

Coastal Water Temperatures

Place Temperature
No Stations Reporting

Nearby Weather Stations